Time;durP1;ratioP1;P1;durP2;ratioP2;P2;SDS_P1;SDS_P2;PMS_P1;PMS_P2;Temp;Humidity;BMP_temperature;BMP_pressure;BME280_temperature;BME280_humidity;BME280_pressure;Samples;Min_cycle;Max_cycle;Signal;HPM_P1;HPM_P2
2022/01/17 00:02:10;;;;;;;38.53;21.33;;;;;;;3.45;88.25;100617.45;1783553;80;21094;-74
2022/01/17 00:04:36;;;;;;;40.67;22.98;;;;;;;3.47;88.23;100630.53;1784036;80;21043;-74
2022/01/17 00:07:03;;;;;;;37.20;22.07;;;;;;;3.46;88.22;100637.59;1784239;80;21460;-74
2022/01/17 00:09:29;;;;;;;34.03;20.82;;;;;;;3.44;88.21;100623.70;1784128;80;21002;-75
2022/01/17 00:11:56;;;;;;;35.10;20.50;;;;;;;3.42;88.18;100611.11;1784156;80;21063;-74
2022/01/17 00:14:28;;;;;;;37.42;22.20;;;;;;;3.43;88.16;100612.80;1783970;80;21535;-74
2022/01/17 00:17:05;;;;;;;36.68;22.22;;;;;;;3.43;88.17;100600.94;1783813;80;21046;-75
2022/01/17 00:21:51;;;;;;;42.95;23.25;;;;;;;3.44;88.17;100598.66;1763610;80;21042;-75
2022/01/17 00:24:18;;;;;;;35.28;24.60;;;;;;;3.43;88.16;100618.06;1773049;80;21072;-75
2022/01/17 00:26:47;;;;;;;40.20;25.95;;;;;;;3.44;88.15;100609.21;1773620;80;21030;-74
2022/01/17 00:29:13;;;;;;;42.90;25.05;;;;;;;3.46;88.16;100600.69;1773839;80;21033;-74
2022/01/17 00:31:39;;;;;;;34.70;21.77;;;;;;;3.49;88.16;100604.88;1773448;80;21010;-74
2022/01/17 00:34:05;;;;;;;34.27;19.27;;;;;;;3.48;88.14;100602.71;1773929;80;21010;-74
2022/01/17 00:36:31;;;;;;;30.40;18.15;;;;;;;3.50;88.15;100604.77;1773801;80;21182;-74
2022/01/17 00:38:57;;;;;;;28.90;17.32;;;;;;;3.51;88.14;100589.31;1765436;80;21037;-74
2022/01/17 00:41:23;;;;;;;30.50;17.82;;;;;;;3.55;88.16;100591.70;1760537;80;21010;-74
2022/01/17 00:43:50;;;;;;;31.07;18.17;;;;;;;3.57;88.13;100593.73;1746511;80;21052;-74
2022/01/17 00:46:16;;;;;;;30.37;17.20;;;;;;;3.60;88.14;100585.58;1752800;81;21068;-74
2022/01/17 00:48:42;;;;;;;30.32;17.05;;;;;;;3.60;88.14;100589.53;1752746;81;21473;-74
2022/01/17 00:51:08;;;;;;;30.05;17.73;;;;;;;3.61;88.13;100583.31;1753482;80;21846;-74
2022/01/17 00:53:37;;;;;;;27.77;17.48;;;;;;;3.63;88.11;100588.81;1752460;81;21004;-74
2022/01/17 00:56:04;;;;;;;29.25;19.27;;;;;;;3.64;88.09;100580.42;1752585;81;21490;-74
2022/01/17 00:58:30;;;;;;;27.60;18.85;;;;;;;3.64;88.09;100577.31;1754986;80;21014;-75
2022/01/17 01:00:56;;;;;;;30.95;19.32;;;;;;;3.62;88.08;100584.52;1733775;82;21786;-75
2022/01/17 01:03:23;;;;;;;31.25;22.22;;;;;;;3.61;88.07;100580.67;1742765;82;21046;-75
2022/01/17 01:05:49;;;;;;;29.85;21.17;;;;;;;3.59;88.06;100578.65;1740682;82;21069;-74
2022/01/17 01:08:15;;;;;;;33.00;23.95;;;;;;;3.59;88.05;100572.06;1725988;82;21037;-74
2022/01/17 01:10:41;;;;;;;35.43;23.85;;;;;;;3.58;88.06;100567.73;1741853;82;21030;-75
2022/01/17 01:13:07;;;;;;;37.53;21.77;;;;;;;3.58;88.06;100562.46;1775457;80;21068;-74
2022/01/17 01:18:12;;;;;;;29.92;17.75;;;;;;;3.58;88.05;100561.98;1721793;80;20977;-75
2022/01/17 01:28:33;;;;;;;26.12;15.88;;;;;;;3.62;88.03;100541.48;1742514;82;21002;-74
2022/01/17 01:31:02;;;;;;;22.90;14.63;;;;;;;3.61;88.04;100547.71;1742509;81;21019;-74
2022/01/17 01:33:38;;;;;;;26.25;16.30;;;;;;;3.63;88.05;100540.50;1747942;81;21007;-74
2022/01/17 01:36:19;;;;;;;25.35;15.78;;;;;;;3.65;88.05;100532.02;1778407;80;21051;-75
2022/01/17 01:38:39;;;;;;;24.67;17.50;;;;;;;3.65;88.05;100534.64;1778066;80;21121;-75
2022/01/17 01:41:05;;;;;;;32.00;19.85;;;;;;;3.65;88.05;100530.69;1779378;80;20979;-74
2022/01/17 01:43:31;;;;;;;29.57;18.92;;;;;;;3.65;88.05;100526.73;1780840;80;21022;-75
2022/01/17 01:46:00;;;;;;;23.30;15.50;;;;;;;3.67;88.05;100518.20;1781595;80;20993;-74
2022/01/17 01:48:25;;;;;;;26.73;17.27;;;;;;;3.68;88.03;100502.28;1781439;80;21453;-74
2022/01/17 01:50:51;;;;;;;30.52;20.05;;;;;;;3.73;88.03;100508.51;1781685;80;20983;-74
2022/01/17 01:53:17;;;;;;;25.92;17.37;;;;;;;3.75;88.01;100503.94;1781460;80;20987;-74
2022/01/17 01:55:44;;;;;;;29.90;18.67;;;;;;;3.74;88.03;100491.22;1781795;80;21029;-74
2022/01/17 01:58:10;;;;;;;23.20;15.10;;;;;;;3.75;87.99;100493.38;1781607;80;21530;-74
2022/01/17 02:00:37;;;;;;;22.17;13.68;;;;;;;3.76;88.01;100499.02;1781595;80;21645;-74
2022/01/17 02:03:07;;;;;;;24.45;15.05;;;;;;;3.80;87.99;100497.82;1781640;80;21056;-75
2022/01/17 02:05:33;;;;;;;17.45;12.07;;;;;;;3.82;87.98;100499.36;1749336;81;21030;-74
2022/01/17 02:07:59;;;;;;;26.05;14.80;;;;;;;3.83;87.98;100488.34;1735315;82;21016;-75
2022/01/17 02:10:25;;;;;;;22.55;14.53;;;;;;;3.85;87.94;100500.42;1755133;80;20993;-75
2022/01/17 02:12:51;;;;;;;27.75;15.35;;;;;;;3.90;87.94;100493.47;1735624;82;21014;-75
2022/01/17 02:15:17;;;;;;;23.05;13.93;;;;;;;3.93;87.92;100495.85;1732994;82;21060;-75
2022/01/17 02:17:54;;;;;;;23.32;14.25;;;;;;;3.95;87.88;100483.36;1734047;82;21790;-75
2022/01/17 02:20:21;;;;;;;18.75;11.83;;;;;;;3.96;87.86;100478.45;1732907;82;21054;-75
2022/01/17 02:22:49;;;;;;;24.35;14.30;;;;;;;3.99;87.85;100463.68;1734058;82;21015;-75
2022/01/17 02:25:15;;;;;;;23.10;14.98;;;;;;;4.04;87.76;100470.75;1734152;82;21499;-74
2022/01/17 02:27:42;;;;;;;26.52;14.50;;;;;;;4.05;87.72;100461.84;1733890;82;21103;-75
2022/01/17 02:30:11;;;;;;;24.92;16.10;;;;;;;4.08;87.68;100458.14;1757776;80;21498;-74
2022/01/17 02:32:37;;;;;;;24.90;14.03;;;;;;;4.11;87.61;100453.92;1760548;80;20987;-75
2022/01/17 02:35:18;;;;;;;27.70;14.95;;;;;;;4.11;87.57;100449.48;1789316;80;21045;-74
2022/01/17 02:37:45;;;;;;;29.07;19.67;;;;;;;4.12;87.50;100434.50;1788776;80;21018;-75
2022/01/17 02:40:13;;;;;;;22.35;13.83;;;;;;;4.11;87.42;100433.66;1789277;80;21134;-74
2022/01/17 02:42:39;;;;;;;23.92;12.18;;;;;;;4.10;87.33;100437.25;1783092;80;20984;-74
2022/01/17 02:46:24;;;;;;;18.32;11.70;;;;;;;4.13;87.27;100436.99;1767790;80;21004;-74
2022/01/17 02:47:35;;;;;;;21.75;12.03;;;;;;;4.13;87.19;100427.75;1709248;82;21038;-74
2022/01/17 02:50:01;;;;;;;20.30;11.03;;;;;;;4.13;87.13;100421.16;1767896;81;20988;-74
2022/01/17 02:52:27;;;;;;;21.33;12.23;;;;;;;4.16;87.08;100408.17;1767975;80;21116;-74
2022/01/17 02:54:53;;;;;;;26.70;11.90;;;;;;;4.18;86.97;100413.70;1736424;82;20886;-75
2022/01/17 02:57:19;;;;;;;20.30;11.57;;;;;;;4.22;86.88;100413.77;1736386;82;21002;-74
2022/01/17 02:59:45;;;;;;;17.25;10.82;;;;;;;4.23;86.79;100412.81;1767963;80;20963;-74
2022/01/17 03:02:11;;;;;;;21.55;11.12;;;;;;;4.25;86.69;100404.30;1767562;80;21453;-74
2022/01/17 03:04:37;;;;;;;21.40;12.70;;;;;;;4.24;86.61;100398.66;1736390;82;21029;-74
2022/01/17 03:07:03;;;;;;;16.60;10.30;;;;;;;4.25;86.51;100396.39;1774480;79;20855;-74
2022/01/17 03:09:38;;;;;;;18.00;9.90;;;;;;;4.26;86.44;100396.72;1791304;80;20962;-74
2022/01/17 03:11:57;;;;;;;23.80;13.68;;;;;;;4.27;86.37;100376.44;1789431;80;21010;-75
2022/01/17 03:14:23;;;;;;;20.68;11.43;;;;;;;4.31;86.24;100371.27;1791249;80;21514;-74
2022/01/17 03:16:49;;;;;;;20.62;12.95;;;;;;;4.33;86.10;100358.27;1790605;80;21875;-75
2022/01/17 03:19:15;;;;;;;19.85;12.73;;;;;;;4.36;85.97;100372.53;1759937;81;20963;-74
2022/01/17 03:21:41;;;;;;;18.40;10.30;;;;;;;4.36;85.92;100372.53;1760093;81;20986;-74
2022/01/17 03:24:07;;;;;;;15.58;9.30;;;;;;;4.36;85.86;100370.40;1790498;80;21081;-74
2022/01/17 03:26:34;;;;;;;18.98;10.20;;;;;;;4.37;85.79;100368.09;1791341;80;21038;-74
2022/01/17 03:29:01;;;;;;;19.35;9.55;;;;;;;4.38;85.71;100364.02;1791057;80;21095;-74
2022/01/17 03:31:27;;;;;;;23.15;10.82;;;;;;;4.39;85.64;100367.49;1791236;80;20980;-74
2022/01/17 03:33:53;;;;;;;17.98;11.03;;;;;;;4.41;85.58;100380.91;1779347;78;20990;-75
2022/01/17 03:36:19;;;;;;;18.57;11.12;;;;;;;4.43;85.49;100383.42;1791552;80;20986;-74
2022/01/17 03:38:46;;;;;;;20.50;10.53;;;;;;;4.43;85.43;100376.31;1792051;80;21054;-74
2022/01/17 03:41:14;;;;;;;17.00;10.30;;;;;;;4.39;85.34;100366.17;1791826;79;21503;-75
2022/01/17 03:43:40;;;;;;;21.27;11.48;;;;;;;4.33;85.30;100351.67;1791417;80;21025;-74
2022/01/17 03:46:06;;;;;;;22.70;11.95;;;;;;;4.30;85.29;100354.58;1770807;80;21005;-75
2022/01/17 03:48:32;;;;;;;28.30;15.90;;;;;;;4.30;85.26;100355.90;1744848;82;20985;-75
2022/01/17 03:50:59;;;;;;;22.00;13.08;;;;;;;4.26;85.22;100350.53;1744898;82;21509;-75
2022/01/17 03:53:25;;;;;;;28.65;14.00;;;;;;;4.21;85.22;100352.73;1744795;82;21257;-74
2022/01/17 03:55:52;;;;;;;27.70;14.25;;;;;;;4.20;85.23;100337.86;1744864;82;21025;-75
2022/01/17 03:58:21;;;;;;;32.83;16.37;;;;;;;4.18;85.22;100341.13;1744641;81;21017;-74
2022/01/17 04:00:47;;;;;;;23.75;12.85;;;;;;;4.17;85.24;100335.48;1744766;82;20986;-74
2022/01/17 04:03:14;;;;;;;25.92;12.88;;;;;;;4.17;85.25;100330.21;1744998;82;21445;-74
2022/01/17 04:05:40;;;;;;;20.90;11.68;;;;;;;4.19;85.27;100336.18;1744859;82;22133;-74
2022/01/17 04:08:06;;;;;;;24.98;12.37;;;;;;;4.25;85.26;100347.55;1744821;81;20965;-74
2022/01/17 04:10:32;;;;;;;15.20;9.33;;;;;;;4.28;85.22;100348.61;1719466;82;21009;-74
2022/01/17 04:13:03;;;;;;;19.95;11.50;;;;;;;4.30;85.20;100341.38;1785489;80;20995;-74
2022/01/17 04:15:30;;;;;;;23.95;11.90;;;;;;;4.32;85.15;100350.03;1791797;80;21471;-74
2022/01/17 04:17:56;;;;;;;22.85;10.95;;;;;;;4.30;85.16;100362.50;1792234;80;21266;-75
2022/01/17 04:20:30;;;;;;;18.90;10.10;;;;;;;4.30;85.13;100357.22;1791909;80;21018;-74
2022/01/17 04:22:56;;;;;;;22.52;10.85;;;;;;;4.30;85.12;100367.78;1791094;80;21002;-74
2022/01/17 04:25:24;;;;;;;20.12;9.55;;;;;;;4.34;85.10;100352.03;1791420;80;20995;-74
2022/01/17 04:27:50;;;;;;;20.17;9.48;;;;;;;4.36;85.08;100347.45;1791854;79;21495;-74
2022/01/17 04:30:16;;;;;;;17.55;10.28;;;;;;;4.35;85.03;100344.48;1792109;80;21105;-74
2022/01/17 04:32:43;;;;;;;16.23;9.75;;;;;;;4.37;85.00;100345.17;1791631;79;21049;-75
2022/01/17 04:35:10;;;;;;;15.90;8.75;;;;;;;4.33;84.95;100329.72;1791429;80;21046;-74
2022/01/17 04:37:36;;;;;;;24.57;12.82;;;;;;;4.32;84.95;100339.47;1791361;80;21047;-75
2022/01/17 04:40:03;;;;;;;21.62;9.78;;;;;;;4.29;84.90;100341.02;1791444;80;21018;-74
2022/01/17 04:42:30;;;;;;;13.85;7.87;;;;;;;4.26;84.89;100346.56;1791163;80;21171;-75
2022/01/17 04:45:08;;;;;;;18.67;9.40;;;;;;;4.22;84.88;100351.75;1791126;80;21003;-74
2022/01/17 04:47:41;;;;;;;13.58;6.92;;;;;;;4.19;84.91;100354.66;1791549;80;20974;-75
2022/01/17 04:50:13;;;;;;;11.00;6.35;;;;;;;4.15;84.89;100340.04;1790667;80;21499;-75
2022/01/17 04:52:39;;;;;;;24.37;10.90;;;;;;;4.12;84.91;100329.75;1799560;78;21479;-75
2022/01/17 04:55:08;;;;;;;17.60;7.12;;;;;;;4.07;84.93;100334.60;1801107;78;22045;-74
2022/01/17 04:57:35;;;;;;;12.30;5.80;;;;;;;4.07;84.96;100325.36;1762423;80;20958;-74
2022/01/17 05:00:01;;;;;;;16.85;8.15;;;;;;;4.07;84.99;100333.76;1791386;80;21031;-74
2022/01/17 05:02:27;;;;;;;16.50;6.22;;;;;;;4.04;85.01;100342.78;1791035;80;20972;-74
2022/01/17 05:04:53;;;;;;;12.28;6.20;;;;;;;4.02;85.02;100357.89;1791536;80;21514;-74
2022/01/17 05:07:19;;;;;;;15.40;5.08;;;;;;;4.01;85.05;100345.69;1791299;80;21965;-75
2022/01/17 05:09:46;;;;;;;13.15;6.05;;;;;;;4.00;85.08;100334.28;1791351;80;20967;-75
2022/01/17 05:12:13;;;;;;;17.95;6.87;;;;;;;4.02;85.13;100334.98;1791279;80;20974;-75
2022/01/17 05:14:41;;;;;;;12.65;6.53;;;;;;;3.99;85.13;100332.61;1791445;80;20987;-74
2022/01/17 05:17:24;;;;;;;21.23;10.90;;;;;;;4.00;85.17;100330.81;1791350;80;20995;-75
2022/01/17 05:19:49;;;;;;;36.15;14.07;;;;;;;4.00;85.20;100322.89;1779463;80;21087;-75
2022/01/17 05:22:17;;;;;;;27.37;11.57;;;;;;;4.01;85.22;100312.20;1756887;80;20994;-75
2022/01/17 05:24:43;;;;;;;20.52;8.28;;;;;;;4.02;85.24;100330.19;1755861;81;21483;-74
2022/01/17 05:27:09;;;;;;;17.82;7.15;;;;;;;4.03;85.27;100322.63;1756839;81;21458;-74
2022/01/17 05:29:35;;;;;;;11.33;6.30;;;;;;;4.05;85.29;100323.32;1756859;80;21006;-74
2022/01/17 05:32:02;;;;;;;16.57;6.80;;;;;;;4.08;85.30;100319.13;1756762;80;21306;-74
2022/01/17 05:34:28;;;;;;;18.57;6.62;;;;;;;4.09;85.29;100312.86;1756550;81;21005;-75
2022/01/17 05:36:54;;;;;;;9.90;5.17;;;;;;;4.12;85.29;100324.98;1773325;80;21480;-74
2022/01/17 05:39:20;;;;;;;11.63;4.53;;;;;;;4.13;85.27;100320.03;1746696;81;20976;-74
2022/01/17 05:41:46;;;;;;;10.38;3.92;;;;;;;4.12;85.23;100311.28;1743223;82;21073;-75
2022/01/17 05:44:12;;;;;;;8.53;3.27;;;;;;;4.09;85.22;100298.35;1710883;83;21149;-75
2022/01/17 05:46:38;;;;;;;13.98;4.50;;;;;;;4.11;85.21;100290.32;1710810;83;21077;-74
2022/01/17 05:49:04;;;;;;;13.40;5.40;;;;;;;4.11;85.17;100272.69;1710810;83;21037;-74
2022/01/17 05:51:30;;;;;;;16.32;6.35;;;;;;;4.08;85.15;100263.72;1711008;83;20898;-75
2022/01/17 05:53:56;;;;;;;16.85;4.47;;;;;;;4.06;85.13;100250.28;1711462;82;21073;-74
2022/01/17 05:56:22;;;;;;;7.55;3.67;;;;;;;4.05;85.12;100246.80;1735617;82;21085;-74
2022/01/17 05:58:48;;;;;;;16.05;4.40;;;;;;;4.07;85.06;100250.16;1728854;83;20960;-74
2022/01/17 06:01:15;;;;;;;10.10;5.67;;;;;;;4.09;85.02;100235.02;1728968;83;21485;-74
2022/01/17 06:03:41;;;;;;;18.92;6.22;;;;;;;4.09;84.98;100223.15;1733531;82;21030;-74
2022/01/17 06:06:07;;;;;;;11.50;5.42;;;;;;;4.08;84.92;100222.83;1746633;81;20878;-74
2022/01/17 06:08:33;;;;;;;12.15;4.75;;;;;;;4.09;84.85;100220.99;1743655;82;21554;-74
2022/01/17 06:11:00;;;;;;;19.12;8.43;;;;;;;4.11;84.81;100196.17;1743477;82;21002;-74
2022/01/17 06:13:26;;;;;;;10.72;4.92;;;;;;;4.12;84.75;100210.20;1743427;80;21478;-74
2022/01/17 06:15:52;;;;;;;16.80;5.10;;;;;;;4.14;84.68;100214.36;1756781;80;21005;-75
2022/01/17 06:18:17;;;;;;;7.95;3.22;;;;;;;4.13;84.60;100199.49;1743715;82;20990;-74
2022/01/17 06:20:44;;;;;;;13.18;3.60;;;;;;;4.13;84.51;100181.02;1743679;82;21006;-75
2022/01/17 06:23:10;;;;;;;11.33;2.60;;;;;;;4.12;84.43;100185.94;1743794;82;21009;-75
2022/01/17 06:25:36;;;;;;;8.98;3.05;;;;;;;4.11;84.33;100159.22;1743626;81;20990;-75
2022/01/17 06:28:02;;;;;;;10.75;2.70;;;;;;;4.10;84.23;100132.48;1743781;82;21534;-75
2022/01/17 06:30:28;;;;;;;12.30;3.22;;;;;;;4.10;84.13;100104.77;1743840;82;21038;-75
2022/01/17 06:32:54;;;;;;;5.70;2.87;;;;;;;4.07;84.02;100127.48;1743667;82;21152;-74
2022/01/17 06:35:20;;;;;;;7.28;2.40;;;;;;;4.03;83.96;100137.94;1743934;81;21025;-74
2022/01/17 06:37:46;;;;;;;10.95;4.08;;;;;;;4.02;83.88;100142.38;1753183;81;20997;-75
2022/01/17 06:40:12;;;;;;;15.30;5.78;;;;;;;3.99;83.82;100149.25;1745050;81;21482;-74
2022/01/17 06:42:38;;;;;;;15.90;3.47;;;;;;;3.99;83.80;100152.37;1743630;81;21061;-75
2022/01/17 06:45:05;;;;;;;6.67;3.27;;;;;;;3.95;83.79;100130.70;1753576;81;21463;-74
2022/01/17 06:47:35;;;;;;;11.60;3.85;;;;;;;3.95;83.78;100103.48;1754225;81;20997;-74
2022/01/17 06:50:04;;;;;;;14.20;6.12;;;;;;;3.91;83.78;100120.06;1756096;81;20995;-74
2022/01/17 06:52:31;;;;;;;14.90;4.30;;;;;;;3.88;83.80;100104.98;1736852;82;21592;-75
2022/01/17 06:54:57;;;;;;;10.78;4.92;;;;;;;3.84;83.83;100087.75;1756697;81;21033;-75
2022/01/17 06:57:24;;;;;;;8.23;4.78;;;;;;;3.85;83.87;100082.84;1743981;82;21121;-75
2022/01/17 06:59:50;;;;;;;10.72;5.10;;;;;;;3.84;83.89;100090.39;1752340;81;21509;-74
2022/01/17 07:02:18;;;;;;;16.60;5.90;;;;;;;3.81;83.93;100085.39;1743972;82;21017;-75
2022/01/17 07:04:44;;;;;;;7.40;2.62;;;;;;;3.79;83.97;100093.94;1731829;81;21053;-75
2022/01/17 07:07:10;;;;;;;9.78;3.25;;;;;;;3.74;84.03;100105.36;1745222;80;21561;-74
2022/01/17 07:09:36;;;;;;;7.00;2.12;;;;;;;3.73;84.11;100124.81;1746969;80;22024;-75
2022/01/17 07:12:04;;;;;;;18.25;5.47;;;;;;;3.71;84.19;100134.16;1742556;82;21050;-75
2022/01/17 07:14:30;;;;;;;7.37;2.50;;;;;;;3.70;84.31;100146.14;1729709;82;21480;-75
2022/01/17 07:16:57;;;;;;;14.65;3.75;;;;;;;3.70;84.41;100143.50;1699724;83;39569;-74
2022/01/17 07:19:24;;;;;;;14.78;5.92;;;;;;;3.69;84.57;100137.90;1714439;83;21060;-74
2022/01/17 07:21:51;;;;;;;10.65;3.02;;;;;;;3.70;84.63;100164.59;1714579;83;21070;-75
2022/01/17 07:24:17;;;;;;;8.10;3.40;;;;;;;3.68;84.71;100154.20;1714657;83;21713;-74
2022/01/17 07:26:43;;;;;;;9.65;3.90;;;;;;;3.69;84.81;100151.09;1727401;82;21060;-75
2022/01/17 07:29:09;;;;;;;8.20;4.35;;;;;;;3.70;84.91;100130.32;1751617;81;20990;-74
2022/01/17 07:31:36;;;;;;;5.45;3.10;;;;;;;3.74;84.96;100118.55;1743899;81;20989;-75
2022/01/17 07:34:03;;;;;;;8.10;4.20;;;;;;;3.77;85.03;100070.80;1742591;81;21150;-75
2022/01/17 07:36:29;;;;;;;12.05;5.70;;;;;;;3.78;85.10;100056.66;1746460;81;21502;-74
2022/01/17 07:38:56;;;;;;;8.40;4.28;;;;;;;3.80;85.14;100023.89;1743709;82;21552;-75
2022/01/17 07:41:22;;;;;;;7.60;3.15;;;;;;;3.82;85.21;100036.96;1743557;82;20990;-75
2022/01/17 07:43:50;;;;;;;5.78;2.62;;;;;;;3.84;85.25;100041.60;1750853;81;20974;-75
2022/01/17 07:46:24;;;;;;;11.88;4.20;;;;;;;3.88;85.27;100024.06;1743346;82;21541;-74
2022/01/17 07:51:31;;;;;;;15.53;5.08;;;;;;;3.97;85.32;99996.04;1721839;82;21050;-75
2022/01/17 07:53:57;;;;;;;22.13;7.65;;;;;;;4.02;85.31;100005.19;1743969;82;21022;-75
2022/01/17 07:56:24;;;;;;;19.65;7.65;;;;;;;4.04;85.33;100007.70;1742451;82;21799;-75
2022/01/17 07:58:50;;;;;;;23.55;6.90;;;;;;;4.05;85.33;100001.44;1740852;82;21276;-75
2022/01/17 08:01:16;;;;;;;27.32;8.53;;;;;;;4.10;85.32;100003.19;1735322;82;21050;-74
2022/01/17 08:03:42;;;;;;;12.20;3.98;;;;;;;4.16;85.28;100005.74;1740538;82;20855;-75
2022/01/17 08:06:08;;;;;;;23.42;9.45;;;;;;;4.21;85.23;99999.09;1742379;81;20997;-75
2022/01/17 08:08:34;;;;;;;33.67;14.30;;;;;;;4.26;85.19;99991.58;1751632;81;21468;-75
2022/01/17 08:11:00;;;;;;;24.65;9.50;;;;;;;4.32;85.14;99966.45;1753967;81;21942;-75
2022/01/17 08:13:26;;;;;;;19.45;6.67;;;;;;;4.35;85.08;99969.64;1743569;82;21060;-75
2022/01/17 08:15:52;;;;;;;22.93;9.68;;;;;;;4.41;85.04;99960.31;1729611;82;21025;-74
2022/01/17 08:18:18;;;;;;;40.00;16.75;;;;;;;4.47;84.98;99969.81;1740457;81;21049;-75
2022/01/17 08:20:44;;;;;;;14.85;4.55;;;;;;;4.53;84.92;99968.44;1739600;82;21069;-75
2022/01/17 08:23:10;;;;;;;11.48;4.90;;;;;;;4.58;84.80;99950.81;1741643;80;21232;-72
2022/01/17 08:25:37;;;;;;;8.05;2.58;;;;;;;4.62;84.70;99923.16;1732509;80;20977;-71
2022/01/17 08:39:26;;;;;;;5.35;2.25;;;;;;;5.09;83.94;99945.94;1753231;78;22510;-74
2022/01/17 08:41:54;;;;;;;9.03;3.83;;;;;;;4.98;83.80;99956.69;1726406;82;20944;-71
2022/01/17 08:44:20;;;;;;;8.35;2.95;;;;;;;4.92;83.73;99951.98;1741035;82;21144;-73
2022/01/17 08:46:46;;;;;;;6.87;2.00;;;;;;;4.86;83.69;99952.55;1731045;82;21696;-75
2022/01/17 08:49:12;;;;;;;4.10;1.87;;;;;;;4.81;83.67;99947.72;1732195;81;21662;-72
2022/01/17 08:51:38;;;;;;;6.72;2.12;;;;;;;4.79;83.64;99960.22;1732140;81;21046;-72
2022/01/17 08:54:06;;;;;;;7.17;2.35;;;;;;;4.79;83.61;99944.37;1762757;80;21015;-73
2022/01/17 08:56:32;;;;;;;7.83;2.87;;;;;;;4.79;83.62;99928.52;1758790;80;21621;-71
2022/01/17 08:58:59;;;;;;;8.35;2.90;;;;;;;4.78;83.63;99918.12;1754765;80;20920;-71
2022/01/17 09:01:25;;;;;;;10.72;3.95;;;;;;;4.79;83.67;99917.12;1756213;80;21039;-72
2022/01/17 09:03:52;;;;;;;7.22;2.85;;;;;;;4.79;83.68;99915.80;1755144;80;21095;-72
2022/01/17 09:06:18;;;;;;;8.75;3.72;;;;;;;4.79;83.71;99924.56;1756673;80;21042;-72
2022/01/17 09:08:44;;;;;;;8.05;1.80;;;;;;;4.79;83.76;99914.47;1762301;80;22522;-72
2022/01/17 09:11:10;;;;;;;4.50;1.50;;;;;;;4.81;83.82;99915.18;1727508;81;21772;-72
2022/01/17 09:13:36;;;;;;;8.40;3.27;;;;;;;4.80;83.84;99930.19;1721511;82;21011;-72
2022/01/17 09:16:02;;;;;;;15.32;4.67;;;;;;;4.80;83.86;99929.36;1745627;80;21047;-72
2022/01/17 09:18:28;;;;;;;19.17;5.80;;;;;;;4.78;83.92;99929.52;1715602;81;21028;-72
2022/01/17 09:20:54;;;;;;;20.48;9.53;;;;;;;4.83;84.00;99934.34;1743246;81;21137;-72
2022/01/17 09:23:21;;;;;;;17.98;6.80;;;;;;;4.86;84.02;99960.47;1746446;80;21049;-72
2022/01/17 09:25:47;;;;;;;11.55;4.22;;;;;;;4.88;84.08;99947.97;1735179;82;21584;-72
2022/01/17 09:28:13;;;;;;;13.08;3.17;;;;;;;4.95;84.13;99946.41;1716812;82;21014;-72
2022/01/17 09:30:39;;;;;;;35.17;16.07;;;;;;;5.03;84.15;99934.64;1772655;80;21033;-71
2022/01/17 09:33:06;;;;;;;19.57;7.00;;;;;;;5.05;84.18;99937.95;1743424;81;21139;-72
2022/01/17 09:35:32;;;;;;;9.85;4.30;;;;;;;5.04;84.20;99922.58;1752498;81;21493;-72
2022/01/17 09:37:59;;;;;;;18.05;6.83;;;;;;;5.06;84.25;99935.66;1746559;81;21629;-72
2022/01/17 09:40:25;;;;;;;12.60;4.15;;;;;;;5.07;84.28;99939.95;1729121;81;21763;-71
2022/01/17 09:42:51;;;;;;;11.50;3.75;;;;;;;5.04;84.29;99953.45;1700986;82;21519;-72
2022/01/17 09:45:20;;;;;;;12.65;4.70;;;;;;;5.00;84.36;99949.43;1726483;83;21072;-71
2022/01/17 09:47:46;;;;;;;11.57;4.20;;;;;;;4.96;84.40;99958.66;1675600;84;21537;-72
2022/01/17 09:50:19;;;;;;;9.00;2.42;;;;;;;4.93;84.49;99952.31;1716638;82;21611;-71
2022/01/17 09:52:47;;;;;;;11.20;4.05;;;;;;;4.91;84.55;99980.70;1737758;82;20998;-72
2022/01/17 09:55:22;;;;;;;8.18;2.87;;;;;;;4.88;84.61;99969.10;1735604;82;21037;-72
2022/01/17 09:57:53;;;;;;;16.73;5.95;;;;;;;4.84;84.67;100039.05;1729408;82;21162;-72
2022/01/17 10:00:26;;;;;;;9.05;3.65;;;;;;;4.79;84.74;100080.89;1728067;82;21624;-72
2022/01/17 10:02:59;;;;;;;8.25;3.60;;;;;;;4.76;84.82;100173.63;1736303;82;21049;-72
2022/01/17 10:05:25;;;;;;;8.38;4.90;;;;;;;4.36;84.88;100228.66;1717679;82;21017;-71
2022/01/17 10:08:06;;;;;;;5.50;2.52;;;;;;;3.59;84.85;100212.97;1724530;82;21544;-71
2022/01/17 10:10:49;;;;;;;5.60;1.80;;;;;;;3.26;84.91;100202.17;1722314;82;21172;-71
2022/01/17 10:13:23;;;;;;;3.02;1.80;;;;;;;3.14;84.92;100211.08;1708043;84;21319;-70
2022/01/17 10:16:19;;;;;;;4.42;2.02;;;;;;;3.14;84.90;100208.45;1734901;82;21069;-70
2022/01/17 10:19:00;;;;;;;3.58;2.00;;;;;;;3.15;84.90;100200.91;1731831;82;21025;-71
2022/01/17 10:21:40;;;;;;;7.67;2.85;;;;;;;3.17;84.89;100216.57;1712093;81;21551;-70
2022/01/17 10:37:17;;;;;;;11.12;4.60;;;;;;;3.10;84.97;100282.11;1720085;81;21050;-73
2022/01/17 10:40:05;;;;;;;8.53;3.20;;;;;;;3.04;84.96;100287.88;1739638;80;21327;-74
2022/01/17 10:42:39;;;;;;;8.13;2.70;;;;;;;3.00;84.91;100297.83;1745609;80;21048;-72
2022/01/17 10:45:15;;;;;;;10.20;4.62;;;;;;;3.00;84.89;100278.55;1744019;80;20998;-71
2022/01/17 10:47:43;;;;;;;13.10;4.60;;;;;;;3.00;84.88;100285.98;1754701;81;21076;-71
2022/01/17 10:50:14;;;;;;;16.17;6.10;;;;;;;3.01;84.87;100286.83;1696619;83;21141;-71
2022/01/17 10:52:47;;;;;;;27.00;9.50;;;;;;;3.02;84.84;100297.73;1743452;81;20997;-71
2022/01/17 10:55:19;;;;;;;23.32;8.70;;;;;;;3.07;84.84;100312.66;1713533;83;21117;-71
2022/01/17 10:57:48;;;;;;;16.40;7.42;;;;;;;3.11;84.83;100310.13;1755983;81;21089;-71
2022/01/17 11:00:18;;;;;;;10.13;3.70;;;;;;;3.13;84.82;100315.30;1715205;82;21071;-73
2022/01/17 11:02:51;;;;;;;6.65;2.42;;;;;;;3.14;84.80;100324.38;1709044;83;21724;-72
2022/01/17 11:05:19;;;;;;;9.10;2.80;;;;;;;3.16;84.75;100326.90;1744181;81;21100;-73
2022/01/17 11:07:46;;;;;;;13.18;4.28;;;;;;;3.16;84.70;100310.61;1714494;83;21062;-71
2022/01/17 11:10:20;;;;;;;20.80;6.92;;;;;;;3.17;84.64;100306.99;1737955;81;21001;-71
2022/01/17 11:12:46;;;;;;;15.75;5.30;;;;;;;3.22;84.59;100324.59;1754697;81;21076;-72
2022/01/17 11:15:14;;;;;;;20.62;6.10;;;;;;;3.26;84.52;100321.23;1756066;81;21112;-72
2022/01/17 11:17:47;;;;;;;26.27;9.03;;;;;;;3.30;84.46;100337.99;1726863;83;21061;-71
2022/01/17 11:20:09;;;;;;;21.27;7.60;;;;;;;3.32;84.40;100362.88;1708721;82;21065;-71
2022/01/17 11:22:37;;;;;;;32.50;12.53;;;;;;;3.34;84.34;100371.52;1699364;84;21689;-71
2022/01/17 11:25:07;;;;;;;18.25;7.75;;;;;;;3.36;84.27;100388.88;1737453;81;21022;-70
2022/01/17 11:27:33;;;;;;;32.60;14.33;;;;;;;3.39;84.22;100393.89;1724802;83;21916;-71
2022/01/17 11:29:59;;;;;;;29.67;14.75;;;;;;;3.44;84.17;100391.73;1754318;81;20985;-71
2022/01/17 11:32:25;;;;;;;10.10;5.10;;;;;;;3.48;84.12;100379.95;1693697;83;21116;-71
2022/01/17 11:34:53;;;;;;;24.52;12.45;;;;;;;3.52;84.04;100381.86;1750769;81;21080;-71
2022/01/17 11:37:19;;;;;;;14.33;4.92;;;;;;;3.57;83.95;100369.63;1718667;83;21026;-71
2022/01/17 11:39:55;;;;;;;15.85;4.45;;;;;;;3.58;83.82;100373.47;1724576;82;21164;-71
2022/01/17 11:42:37;;;;;;;16.02;5.10;;;;;;;3.56;83.61;100370.58;1760821;80;21034;-71
2022/01/17 11:45:27;;;;;;;14.20;5.17;;;;;;;3.57;83.47;100399.95;1761135;81;21093;-71
2022/01/17 11:47:58;;;;;;;8.78;2.92;;;;;;;3.60;83.30;100416.83;1762363;81;27422;-71
2022/01/17 11:50:35;;;;;;;13.35;5.78;;;;;;;3.64;83.13;100428.80;1750332;80;21035;-72
2022/01/17 11:53:15;;;;;;;9.40;4.40;;;;;;;3.63;82.92;100432.39;1746444;81;21095;-71
2022/01/17 11:55:44;;;;;;;8.18;2.83;;;;;;;3.61;82.68;100436.50;1764027;81;20975;-71
2022/01/17 11:58:24;;;;;;;18.00;7.28;;;;;;;3.63;82.45;100421.84;1763708;81;21050;-71
2022/01/17 12:01:06;;;;;;;;;;;;;;;3.70;82.33;100415.11;1766954;81;21045;-71
2022/01/17 12:03:48;;;;;;;16.05;4.65;;;;;;;3.74;81.92;100416.54;1757781;81;20186;-71
2022/01/17 12:06:35;;;;;;;13.65;5.50;;;;;;;3.81;81.63;100425.62;1749069;82;21825;-71
2022/01/17 12:09:22;;;;;;;6.80;2.47;;;;;;;3.87;81.34;100444.92;1748948;81;20949;-71